Time;durP1;ratioP1;P1;durP2;ratioP2;P2;SDS_P1;SDS_P2;PMS_P1;PMS_P2;Temp;Humidity;BMP_temperature;BMP_pressure;BME280_temperature;BME280_humidity;BME280_pressure;Samples;Min_cycle;Max_cycle;Signal;HPM_P1;HPM_P2
2024/04/04 00:01:48;;;;;;;2.42;1.35;;;;;;;11.24;47.65;94623.59;5070869;28;20024;-79
2024/04/04 00:04:15;;;;;;;5.38;1.42;;;;;;;11.23;46.07;94610.72;5071216;28;20033;-80
2024/04/04 00:06:40;;;;;;;3.45;1.63;;;;;;;11.31;46.32;94623.88;5064598;28;20471;-79
2024/04/04 00:09:06;;;;;;;2.40;1.20;;;;;;;11.12;48.28;94611.69;5061802;28;20037;-79
2024/04/04 00:11:31;;;;;;;3.50;1.30;;;;;;;11.21;48.23;94618.69;5071046;28;20066;-79
2024/04/04 00:13:57;;;;;;;3.97;1.55;;;;;;;11.26;46.66;94619.09;5069568;28;20028;-79
2024/04/04 00:16:22;;;;;;;3.20;1.77;;;;;;;11.09;47.13;94614.56;5070481;28;20029;-79
2024/04/04 00:18:48;;;;;;;2.88;1.20;;;;;;;11.19;49.49;94621.41;5066685;28;20118;-79
2024/04/04 00:21:13;;;;;;;2.83;1.50;;;;;;;11.21;49.06;94621.28;5070406;28;20390;-80
2024/04/04 00:23:39;;;;;;;2.75;1.50;;;;;;;11.10;47.84;94611.00;5059376;28;20033;-79
2024/04/04 00:26:04;;;;;;;3.47;1.70;;;;;;;11.11;48.08;94620.44;5052060;28;20040;-79
2024/04/04 00:28:32;;;;;;;4.53;1.60;;;;;;;10.95;48.96;94602.78;5073930;28;20027;-79
2024/04/04 00:30:57;;;;;;;2.83;1.77;;;;;;;11.05;49.04;94621.78;5075142;28;20062;-80
2024/04/04 00:33:23;;;;;;;3.97;2.05;;;;;;;11.04;47.93;94617.56;5072891;28;20498;-80
2024/04/04 00:35:48;;;;;;;3.35;1.50;;;;;;;11.10;48.67;94604.03;5070915;28;20029;-80
2024/04/04 00:38:14;;;;;;;3.10;1.83;;;;;;;11.04;49.39;94596.78;5072383;28;20016;-79
2024/04/04 00:40:39;;;;;;;3.08;1.80;;;;;;;11.04;47.94;94608.94;5056809;28;20489;-80
2024/04/04 00:43:05;;;;;;;3.55;1.90;;;;;;;10.86;47.95;94593.16;5032669;28;20032;-80
2024/04/04 00:45:31;;;;;;;3.53;1.80;;;;;;;10.84;47.24;94605.50;5064518;28;20033;-79
2024/04/04 00:47:57;;;;;;;4.53;1.80;;;;;;;10.91;48.04;94606.59;5073246;28;20044;-79
2024/04/04 00:50:22;;;;;;;2.85;1.55;;;;;;;10.78;47.69;94606.00;5074482;28;20051;-80
2024/04/04 00:52:48;;;;;;;4.07;2.08;;;;;;;10.73;48.28;94604.63;5073253;28;20494;-79
2024/04/04 00:55:13;;;;;;;3.25;1.90;;;;;;;10.64;48.59;94605.44;5070170;28;20495;-79
2024/04/04 00:57:39;;;;;;;3.53;1.45;;;;;;;10.58;48.82;94605.13;5072826;28;20482;-79
2024/04/04 01:00:05;;;;;;;3.28;1.70;;;;;;;10.47;48.91;94603.47;5056131;28;20470;-80
2024/04/04 01:02:31;;;;;;;4.35;1.70;;;;;;;10.22;49.56;94583.91;5066212;28;20025;-80
2024/04/04 01:04:56;;;;;;;2.70;1.65;;;;;;;10.29;49.34;94591.09;5073123;28;20037;-79
2024/04/04 01:07:22;;;;;;;3.63;2.00;;;;;;;10.19;49.78;94603.19;5073846;28;20129;-79
2024/04/04 01:09:47;;;;;;;6.65;2.00;;;;;;;9.84;50.11;94549.06;5072295;28;20028;-79
2024/04/04 01:12:12;;;;;;;4.68;1.98;;;;;;;10.22;50.38;94602.94;5070223;28;20032;-80
2024/04/04 01:14:38;;;;;;;4.32;1.83;;;;;;;10.12;50.63;94594.28;5072602;28;20039;-79
2024/04/04 01:17:03;;;;;;;3.47;1.73;;;;;;;10.10;50.67;94598.78;5072310;28;20031;-80
2024/04/04 01:19:29;;;;;;;4.07;1.88;;;;;;;10.04;50.56;94612.25;5071943;28;20056;-80
2024/04/04 01:21:54;;;;;;;3.67;1.80;;;;;;;9.99;50.79;94604.84;5070510;28;20020;-79
2024/04/04 01:24:20;;;;;;;3.10;1.77;;;;;;;10.08;50.44;94600.66;5070169;28;20040;-79
2024/04/04 01:26:45;;;;;;;3.53;1.80;;;;;;;9.89;50.76;94596.22;5053670;28;20056;-79
2024/04/04 01:29:10;;;;;;;4.88;1.90;;;;;;;9.92;50.46;94608.09;5054905;28;20036;-79
2024/04/04 01:31:36;;;;;;;3.30;1.80;;;;;;;9.84;50.92;94612.16;5067429;28;20054;-79
2024/04/04 01:34:01;;;;;;;3.35;1.85;;;;;;;9.87;50.80;94608.50;5073521;28;20028;-79
2024/04/04 01:36:27;;;;;;;3.42;1.98;;;;;;;9.80;50.72;94605.56;5073320;28;20059;-79
2024/04/04 01:38:52;;;;;;;5.28;1.95;;;;;;;9.67;51.45;94604.94;5054784;28;20032;-79
2024/04/04 01:41:18;;;;;;;3.10;1.83;;;;;;;9.63;51.38;94588.81;5071267;28;20037;-79
2024/04/04 01:43:44;;;;;;;4.22;2.00;;;;;;;9.69;51.25;94608.22;5060175;28;20040;-79
2024/04/04 01:46:10;;;;;;;3.60;1.80;;;;;;;9.70;51.60;94606.47;5053663;28;20040;-79
2024/04/04 01:48:35;;;;;;;3.60;2.00;;;;;;;9.49;51.79;94585.72;5060264;28;20024;-79
2024/04/04 01:51:01;;;;;;;4.15;1.98;;;;;;;9.60;51.70;94603.81;5072108;28;20036;-79
2024/04/04 01:53:26;;;;;;;3.25;1.67;;;;;;;9.51;51.91;94607.97;5072479;28;20040;-78
2024/04/04 01:55:58;;;;;;;3.65;1.67;;;;;;;9.57;51.87;94617.84;5038753;28;20032;-79
2024/04/04 01:58:24;;;;;;;3.53;1.67;;;;;;;9.51;52.40;94625.31;5069585;28;20021;-79
2024/04/04 02:00:49;;;;;;;3.78;1.90;;;;;;;9.55;52.10;94617.13;5073225;28;20040;-79
2024/04/04 02:03:15;;;;;;;4.13;2.10;;;;;;;9.30;51.96;94589.78;5070910;28;20446;-78
2024/04/04 02:05:41;;;;;;;4.15;1.85;;;;;;;9.48;52.45;94623.78;5071951;28;20406;-78
2024/04/04 02:08:06;;;;;;;3.70;2.03;;;;;;;9.46;52.23;94624.84;5035421;28;20052;-78
2024/04/04 02:10:32;;;;;;;3.17;1.88;;;;;;;9.49;52.19;94622.81;5045756;28;20032;-79
2024/04/04 02:12:58;;;;;;;2.70;1.73;;;;;;;9.39;52.25;94625.34;5052946;28;20100;-79
2024/04/04 02:15:23;;;;;;;3.15;1.83;;;;;;;9.45;52.25;94625.81;5056367;28;20037;-79
2024/04/04 02:17:49;;;;;;;4.07;1.60;;;;;;;9.58;51.97;94637.66;5071345;28;20031;-79
2024/04/04 02:20:14;;;;;;;3.58;1.75;;;;;;;9.65;51.72;94621.59;5072278;28;20422;-79
2024/04/04 02:22:40;;;;;;;3.67;1.70;;;;;;;9.29;51.75;94590.75;5072361;28;20017;-79
2024/04/04 02:25:06;;;;;;;2.70;1.52;;;;;;;9.54;51.92;94622.47;5065532;28;20037;-78
2024/04/04 02:27:33;;;;;;;4.65;2.38;;;;;;;9.58;51.78;94621.25;5069860;28;20091;-79
2024/04/04 02:30:02;;;;;;;3.55;1.70;;;;;;;9.59;51.70;94620.31;5051141;28;20226;-78
2024/04/04 02:32:28;;;;;;;2.60;1.63;;;;;;;9.55;51.86;94630.09;5034705;28;20025;-78
2024/04/04 02:34:53;;;;;;;3.75;1.67;;;;;;;9.44;51.99;94614.59;5061332;28;20024;-79
2024/04/04 02:37:19;;;;;;;4.05;1.60;;;;;;;9.49;52.04;94617.63;5054578;28;20057;-79
2024/04/04 02:39:44;;;;;;;3.17;1.92;;;;;;;9.45;52.31;94629.22;5052116;28;20506;-79
2024/04/04 02:42:10;;;;;;;4.80;1.83;;;;;;;9.37;52.47;94624.66;5052262;28;20407;-79
2024/04/04 02:44:35;;;;;;;3.63;1.70;;;;;;;9.28;52.51;94625.41;5065604;28;20410;-79
2024/04/04 02:47:01;;;;;;;4.00;1.98;;;;;;;9.24;52.81;94626.59;5052351;28;20036;-79
2024/04/04 02:49:27;;;;;;;4.00;1.92;;;;;;;9.10;53.21;94624.28;5029337;28;20414;-79
2024/04/04 02:51:52;;;;;;;3.75;1.88;;;;;;;9.16;52.63;94610.81;5050457;28;20037;-78
2024/04/04 02:54:18;;;;;;;3.58;1.63;;;;;;;9.24;52.65;94624.00;5068371;28;20036;-78
2024/04/04 02:56:47;;;;;;;5.50;1.88;;;;;;;9.23;52.37;94624.94;5071756;28;20028;-78
2024/04/04 02:59:12;;;;;;;3.38;1.42;;;;;;;9.12;52.73;94625.81;5071693;28;20517;-79
2024/04/04 03:01:37;;;;;;;5.32;1.67;;;;;;;9.03;52.67;94607.59;5068426;28;20032;-79
2024/04/04 03:04:03;;;;;;;3.45;1.40;;;;;;;9.23;52.70;94617.16;5069600;28;20032;-79
2024/04/04 03:06:28;;;;;;;3.38;1.67;;;;;;;9.25;51.98;94610.09;5037507;28;20039;-79
2024/04/04 03:08:54;;;;;;;4.25;1.75;;;;;;;9.16;52.14;94603.06;5071625;28;20486;-78
2024/04/04 03:11:20;;;;;;;2.97;1.60;;;;;;;9.18;51.93;94603.75;5044822;28;20037;-79
2024/04/04 03:13:45;;;;;;;3.97;1.88;;;;;;;9.30;52.61;94625.25;5039238;28;20031;-79
2024/04/04 03:16:10;;;;;;;4.20;1.98;;;;;;;9.24;52.33;94618.81;5050342;28;20037;-79
2024/04/04 03:18:36;;;;;;;5.35;1.83;;;;;;;9.18;52.16;94614.94;5051447;28;20114;-79
2024/04/04 03:21:02;;;;;;;3.25;1.67;;;;;;;9.12;52.64;94614.63;5029196;28;20036;-79
2024/04/04 03:23:27;;;;;;;3.78;1.80;;;;;;;9.14;52.59;94612.75;5020546;28;20514;-77
2024/04/04 03:25:53;;;;;;;2.47;1.63;;;;;;;9.13;52.15;94606.72;5052148;28;20033;-79
2024/04/04 03:28:18;;;;;;;3.42;1.80;;;;;;;9.09;52.35;94607.09;5037050;28;20035;-78
2024/04/04 03:30:44;;;;;;;4.60;2.08;;;;;;;9.12;52.32;94620.63;5068348;28;20098;-78
2024/04/04 03:33:09;;;;;;;3.85;1.60;;;;;;;8.94;51.87;94596.16;5071568;28;20033;-78
2024/04/04 03:35:38;;;;;;;3.80;1.80;;;;;;;8.95;52.01;94596.06;5061857;28;20028;-79
2024/04/04 03:38:04;;;;;;;4.57;1.80;;;;;;;9.15;51.72;94619.56;5035739;28;20124;-78
2024/04/04 03:40:31;;;;;;;4.45;1.83;;;;;;;9.09;51.57;94620.06;5070490;28;20119;-79
2024/04/04 03:42:56;;;;;;;4.88;1.75;;;;;;;9.10;51.50;94629.47;5036518;28;20036;-78
2024/04/04 03:45:22;;;;;;;3.17;1.80;;;;;;;9.20;52.02;94632.16;5002318;28;20032;-78
2024/04/04 03:47:47;;;;;;;3.15;1.77;;;;;;;9.17;51.76;94620.25;5057782;28;20036;-78
2024/04/04 03:50:13;;;;;;;3.47;1.80;;;;;;;9.13;51.60;94616.25;5053454;28;20032;-78
2024/04/04 03:52:38;;;;;;;4.03;1.98;;;;;;;9.11;52.01;94619.00;5058377;28;20032;-78
2024/04/04 03:55:04;;;;;;;3.47;1.60;;;;;;;9.08;51.51;94624.41;5033605;28;20094;-78
2024/04/04 03:57:30;;;;;;;5.03;1.60;;;;;;;9.10;51.61;94619.91;5041830;28;20025;-78
2024/04/04 03:59:55;;;;;;;3.10;1.80;;;;;;;9.03;51.68;94623.97;5060670;28;20037;-78
2024/04/04 04:02:22;;;;;;;4.30;1.60;;;;;;;9.10;51.70;94616.50;5032052;28;20025;-79
2024/04/04 04:04:48;;;;;;;6.65;1.75;;;;;;;9.10;51.38;94622.50;5065006;28;20028;-79
2024/04/04 04:07:13;;;;;;;2.97;1.58;;;;;;;9.02;51.72;94611.09;5017155;28;20040;-79
2024/04/04 04:09:39;;;;;;;5.63;1.75;;;;;;;8.95;51.57;94619.38;5051987;28;20087;-78
2024/04/04 04:12:04;;;;;;;4.18;1.65;;;;;;;9.13;51.42;94629.22;5017807;28;20033;-77
2024/04/04 04:14:30;;;;;;;5.15;1.60;;;;;;;8.99;51.40;94621.72;5018214;28;20033;-78
2024/04/04 04:16:55;;;;;;;3.97;1.70;;;;;;;9.02;51.39;94631.84;5056003;28;20048;-78
2024/04/04 04:19:21;;;;;;;4.97;1.50;;;;;;;8.85;51.83;94608.09;5070454;28;20056;-77
2024/04/04 04:21:46;;;;;;;3.83;1.50;;;;;;;9.15;50.77;94629.91;5064315;28;20028;-77
2024/04/04 04:24:11;;;;;;;3.83;1.98;;;;;;;9.11;51.11;94618.13;5050585;28;20036;-78
2024/04/04 04:26:37;;;;;;;3.00;1.48;;;;;;;9.33;50.41;94632.78;5049616;28;20396;-78
2024/04/04 04:29:02;;;;;;;4.13;1.50;;;;;;;9.27;50.37;94633.28;5049431;28;20479;-77
2024/04/04 04:31:29;;;;;;;3.72;1.60;;;;;;;9.36;50.35;94641.16;5049296;28;20032;-77
2024/04/04 04:33:55;;;;;;;3.17;1.65;;;;;;;9.28;50.32;94633.19;5055678;28;20092;-77
2024/04/04 04:36:25;;;;;;;3.30;1.70;;;;;;;9.42;49.84;94641.59;5069441;28;20044;-78
2024/04/04 04:38:50;;;;;;;2.95;1.52;;;;;;;9.39;50.12;94650.47;5052786;28;20032;-77
2024/04/04 04:41:16;;;;;;;3.50;1.48;;;;;;;9.31;49.96;94634.72;5036162;28;20127;-78
2024/04/04 04:43:43;;;;;;;2.80;1.40;;;;;;;9.32;50.69;94641.53;5069460;28;20048;-77
2024/04/04 04:46:09;;;;;;;2.65;1.33;;;;;;;9.17;50.81;94641.00;5069078;28;20021;-78
2024/04/04 04:48:34;;;;;;;4.45;1.70;;;;;;;9.25;50.93;94643.81;5035927;28;20045;-77
2024/04/04 04:51:00;;;;;;;7.07;2.50;;;;;;;9.42;51.52;94642.44;5070148;28;20043;-78
2024/04/04 04:53:25;;;;;;;3.55;1.90;;;;;;;9.62;52.56;94646.00;5070253;28;20048;-77
2024/04/04 04:55:50;;;;;;;3.75;2.00;;;;;;;9.84;52.39;94658.03;5052442;28;20037;-77
2024/04/04 04:58:18;;;;;;;4.22;1.90;;;;;;;9.98;52.28;94664.69;5035748;28;20240;-78
2024/04/04 05:00:44;;;;;;;9.80;2.40;;;;;;;9.82;52.53;94667.72;5030671;28;20045;-77
2024/04/04 05:03:09;;;;;;;3.55;1.45;;;;;;;10.34;51.70;94663.41;5066305;28;20078;-78
2024/04/04 05:05:35;;;;;;;3.97;1.80;;;;;;;10.42;50.80;94657.56;5058209;28;20495;-78
2024/04/04 05:08:02;;;;;;;4.50;1.60;;;;;;;10.53;52.16;94675.69;5063017;28;20047;-78
2024/04/04 05:10:29;;;;;;;4.82;2.20;;;;;;;11.67;48.89;94655.38;5020339;28;20037;-79
2024/04/04 05:12:55;;;;;;;6.82;2.90;;;;;;;12.60;46.23;94670.31;5056795;28;20025;-79
2024/04/04 05:15:20;;;;;;;7.53;3.10;;;;;;;11.88;48.40;94663.88;5047228;28;20025;-80
2024/04/04 05:17:46;;;;;;;11.75;3.47;;;;;;;11.49;48.32;94673.44;5038092;28;20013;-80
2024/04/04 05:20:13;;;;;;;6.88;2.85;;;;;;;11.41;48.02;94684.53;5069951;28;20053;-79
2024/04/04 05:22:40;;;;;;;7.63;2.53;;;;;;;11.88;48.17;94687.31;5045853;28;20112;-80
2024/04/04 05:25:06;;;;;;;4.95;2.30;;;;;;;12.35;46.79;94690.00;5061944;28;20494;-80
2024/04/04 05:27:31;;;;;;;4.07;2.00;;;;;;;12.43;46.78;94694.50;5053877;28;20021;-80
2024/04/04 05:30:04;;;;;;;4.03;2.00;;;;;;;11.56;47.68;94662.38;5069782;28;20414;-79
2024/04/04 05:32:30;;;;;;;5.72;2.00;;;;;;;11.49;48.27;94700.28;5052059;28;20035;-79
2024/04/04 05:34:56;;;;;;;5.28;2.20;;;;;;;11.39;47.96;94709.84;5069540;28;20047;-80
2024/04/04 05:37:21;;;;;;;8.50;2.50;;;;;;;11.22;48.55;94674.09;5070424;28;20029;-80
2024/04/04 05:39:47;;;;;;;3.78;2.40;;;;;;;11.81;47.56;94702.63;5053259;28;20044;-80
2024/04/04 05:42:12;;;;;;;12.15;3.30;;;;;;;11.36;48.93;94704.91;5037166;28;20032;-80
2024/04/04 05:44:38;;;;;;;9.32;3.20;;;;;;;11.10;49.42;94704.59;5050021;28;20050;-80
2024/04/04 05:47:04;;;;;;;8.88;3.28;;;;;;;10.98;49.60;94701.28;5034754;28;20029;-80
2024/04/04 05:49:30;;;;;;;12.88;3.38;;;;;;;10.99;50.16;94705.50;5036503;28;20127;-80
2024/04/04 05:51:56;;;;;;;12.70;4.10;;;;;;;11.00;50.25;94701.13;5054156;28;20047;-80
2024/04/04 05:54:22;;;;;;;6.82;3.05;;;;;;;11.03;50.33;94709.50;5069790;28;20036;-80
2024/04/04 05:56:47;;;;;;;7.30;2.65;;;;;;;11.08;49.86;94704.72;5050113;28;20028;-80
2024/04/04 05:59:13;;;;;;;9.63;3.35;;;;;;;11.38;49.83;94716.00;5055729;28;20033;-80
2024/04/04 06:01:38;;;;;;;6.53;2.78;;;;;;;11.38;48.95;94716.00;5057552;28;20490;-80
2024/04/04 06:04:04;;;;;;;6.70;3.35;;;;;;;11.87;47.52;94718.66;5069349;28;20033;-80
2024/04/04 06:06:29;;;;;;;4.85;2.97;;;;;;;12.12;46.71;94717.28;5071658;28;20107;-80
2024/04/04 06:08:55;;;;;;;6.85;2.78;;;;;;;12.11;47.31;94707.84;5054945;28;20414;-80
2024/04/04 06:11:21;;;;;;;5.45;2.75;;;;;;;11.87;47.22;94688.28;5052459;28;20414;-80
2024/04/04 06:13:46;;;;;;;8.85;2.90;;;;;;;11.58;48.42;94686.44;5063165;28;20025;-78
2024/04/04 06:16:11;;;;;;;8.15;2.65;;;;;;;11.35;48.83;94692.88;5064179;28;20483;-80
2024/04/04 06:18:37;;;;;;;7.82;2.60;;;;;;;11.74;48.81;94703.31;5071068;28;20060;-80
2024/04/04 06:21:03;;;;;;;8.27;3.20;;;;;;;11.95;48.07;94711.84;5056958;28;20036;-79
2024/04/04 06:23:29;;;;;;;7.55;3.30;;;;;;;11.82;48.68;94711.25;5057135;28;20033;-78
2024/04/04 06:25:54;;;;;;;12.52;3.45;;;;;;;11.98;47.15;94664.72;5049338;28;20036;-80
2024/04/04 06:28:20;;;;;;;8.63;3.42;;;;;;;12.50;46.50;94722.44;5058011;28;20476;-74
2024/04/04 06:30:45;;;;;;;8.85;3.25;;;;;;;12.55;46.07;94723.81;5027202;28;20040;-77
2024/04/04 06:33:11;;;;;;;8.18;3.22;;;;;;;12.72;45.91;94723.06;5071660;28;20032;-76
2024/04/04 06:35:36;;;;;;;6.30;3.17;;;;;;;12.88;45.49;94715.47;5035817;28;20522;-76
2024/04/04 06:38:02;;;;;;;9.60;3.38;;;;;;;12.71;46.63;94718.84;5045833;28;20414;-76
2024/04/04 06:40:31;;;;;;;10.70;3.72;;;;;;;12.90;45.36;94726.59;5068742;28;20047;-76
2024/04/04 06:42:57;;;;;;;9.10;3.58;;;;;;;13.41;44.24;94719.22;5052785;28;20514;-77
2024/04/04 06:45:22;;;;;;;7.18;3.30;;;;;;;13.26;44.74;94734.56;5062414;28;20043;-77
2024/04/04 06:47:57;;;;;;;7.88;2.70;;;;;;;13.04;44.86;94735.72;5051791;28;20414;-77
2024/04/04 06:50:25;;;;;;;10.60;2.70;;;;;;;13.49;43.64;94739.38;5034876;28;20029;-79
2024/04/04 06:52:50;;;;;;;5.80;2.30;;;;;;;14.15;41.79;94732.97;5066122;28;20021;-79
2024/04/04 06:55:16;;;;;;;5.50;2.20;;;;;;;14.21;41.93;94730.59;5036335;28;20059;-78
2024/04/04 06:57:41;;;;;;;5.88;2.33;;;;;;;14.88;39.34;94723.06;5047650;28;20029;-77
2024/04/04 07:00:09;;;;;;;5.22;2.25;;;;;;;15.12;38.26;94729.38;5071299;28;20051;-77
2024/04/04 07:02:35;;;;;;;4.75;1.98;;;;;;;15.37;37.23;94722.44;5071441;28;20030;-77
2024/04/04 07:05:01;;;;;;;4.30;2.10;;;;;;;14.93;37.97;94714.72;5051901;28;20093;-76
2024/04/04 07:07:26;;;;;;;10.45;2.20;;;;;;;14.46;38.94;94722.94;5037158;28;20464;-77
2024/04/04 07:09:52;;;;;;;5.00;2.15;;;;;;;14.66;39.29;94734.03;5071574;28;20415;-77
2024/04/04 07:12:18;;;;;;;5.35;2.00;;;;;;;14.87;39.20;94742.31;5053762;28;20028;-77
2024/04/04 07:14:43;;;;;;;6.88;2.55;;;;;;;15.28;38.05;94728.63;5053578;28;20040;-76
2024/04/04 07:17:08;;;;;;;7.07;2.63;;;;;;;15.06;37.99;94709.91;5053349;28;20025;-77
2024/04/04 07:19:34;;;;;;;6.10;2.22;;;;;;;15.31;35.64;94728.31;5070040;28;20537;-76
2024/04/04 07:22:00;;;;;;;5.70;2.58;;;;;;;15.42;36.51;94721.00;5069994;28;20032;-77
2024/04/04 07:24:25;;;;;;;4.93;2.13;;;;;;;15.59;34.88;94721.03;5069934;28;20039;-77
2024/04/04 07:26:51;;;;;;;4.13;1.58;;;;;;;15.51;33.34;94729.69;5036677;28;20467;-76
2024/04/04 07:29:16;;;;;;;7.53;1.98;;;;;;;15.63;31.53;94725.00;5069933;28;20387;-76
2024/04/04 07:31:41;;;;;;;7.63;2.03;;;;;;;16.00;32.55;94727.19;5069730;28;20055;-76
2024/04/04 07:34:07;;;;;;;5.60;2.03;;;;;;;16.51;31.86;94712.13;5069783;28;20024;-76
2024/04/04 07:36:32;;;;;;;5.68;1.85;;;;;;;16.31;31.92;94716.06;5036191;28;20025;-76
2024/04/04 07:38:58;;;;;;;7.80;2.17;;;;;;;16.20;31.80;94725.09;5070836;28;20410;-76
2024/04/04 07:41:23;;;;;;;6.03;2.50;;;;;;;15.99;32.01;94722.13;5036315;28;20486;-76
2024/04/04 07:43:48;;;;;;;4.95;2.10;;;;;;;15.79;32.46;94717.19;5053063;28;20032;-76
2024/04/04 07:46:16;;;;;;;4.38;1.75;;;;;;;16.65;32.11;94720.31;5071320;28;20049;-76
2024/04/04 07:48:42;;;;;;;6.05;1.60;;;;;;;16.56;31.53;94718.69;5069812;28;20043;-76
2024/04/04 07:51:09;;;;;;;4.35;2.00;;;;;;;16.49;31.59;94735.09;5053175;28;20071;-76
2024/04/04 07:53:34;;;;;;;5.00;1.70;;;;;;;16.65;31.02;94721.13;5052936;28;20037;-76
2024/04/04 07:56:00;;;;;;;4.72;2.10;;;;;;;16.84;31.50;94724.41;5053255;28;20089;-77
2024/04/04 07:58:26;;;;;;;3.88;1.50;;;;;;;17.17;29.72;94722.50;5069543;28;20025;-76
2024/04/04 08:00:52;;;;;;;4.22;1.33;;;;;;;16.75;28.86;94715.72;5069358;28;20070;-76
2024/04/04 08:03:18;;;;;;;4.57;1.38;;;;;;;16.41;29.74;94692.31;5071321;28;20032;-76
2024/04/04 08:05:43;;;;;;;4.05;1.25;;;;;;;16.47;29.76;94726.56;5036263;28;20028;-76
2024/04/04 08:08:09;;;;;;;6.32;1.52;;;;;;;16.30;29.91;94731.00;5052802;28;20033;-76
2024/04/04 08:10:35;;;;;;;6.13;1.30;;;;;;;16.50;29.33;94718.34;5036198;28;20056;-76
2024/04/04 08:13:01;;;;;;;4.75;1.38;;;;;;;17.18;29.82;94722.31;5070592;28;20031;-76
2024/04/04 08:15:27;;;;;;;3.55;1.30;;;;;;;17.24;29.08;94710.31;5036149;28;20445;-76
2024/04/04 08:17:52;;;;;;;4.25;1.33;;;;;;;17.58;29.40;94719.72;5070415;28;20028;-76
2024/04/04 08:20:18;;;;;;;6.35;1.48;;;;;;;17.73;28.96;94717.16;5069427;28;20051;-77
2024/04/04 08:22:46;;;;;;;2.60;1.30;;;;;;;17.28;29.00;94702.94;5052572;28;20093;-77
2024/04/04 08:25:13;;;;;;;2.95;1.10;;;;;;;17.48;29.31;94724.34;5053187;28;20039;-77
2024/04/04 08:27:39;;;;;;;4.53;1.45;;;;;;;16.60;29.54;94694.56;5070402;28;20446;-76
2024/04/04 08:30:05;;;;;;;4.18;1.10;;;;;;;17.09;30.01;94712.84;5069396;28;20024;-76
2024/04/04 08:32:31;;;;;;;4.97;1.42;;;;;;;17.26;30.48;94720.66;5036236;28;20028;-76
2024/04/04 08:34:57;;;;;;;2.75;1.30;;;;;;;17.28;30.20;94718.69;5052894;28;20085;-76
2024/04/04 08:37:23;;;;;;;4.10;1.25;;;;;;;17.07;30.35;94716.63;5069138;28;20024;-77
2024/04/04 08:39:48;;;;;;;3.85;1.80;;;;;;;16.85;30.85;94708.47;5052465;28;20486;-77
2024/04/04 08:42:14;;;;;;;4.55;1.83;;;;;;;16.68;30.99;94706.84;5069196;28;20032;-76
2024/04/04 08:44:42;;;;;;;5.45;1.42;;;;;;;16.61;31.79;94711.16;5052415;28;20036;-76
2024/04/04 08:47:09;;;;;;;3.97;1.38;;;;;;;17.39;31.10;94716.50;5053066;28;20395;-76
2024/04/04 08:49:35;;;;;;;3.95;1.50;;;;;;;17.12;31.04;94714.31;5039625;28;20036;-76
2024/04/04 08:52:01;;;;;;;5.05;1.50;;;;;;;17.16;30.95;94710.34;5055833;28;20025;-76
2024/04/04 08:54:27;;;;;;;6.22;1.50;;;;;;;17.15;31.28;94719.22;5036248;28;20055;-77
2024/04/04 08:56:53;;;;;;;2.97;1.20;;;;;;;17.09;31.46;94712.84;5052652;28;20482;-76
2024/04/04 08:59:20;;;;;;;3.97;1.30;;;;;;;17.56;31.80;94719.06;5052599;28;20037;-77
2024/04/04 09:01:45;;;;;;;3.03;1.38;;;;;;;17.78;31.13;94710.44;5036198;28;20492;-76
2024/04/04 09:04:11;;;;;;;3.40;1.20;;;;;;;17.36;30.96;94685.34;5035892;28;20057;-76
2024/04/04 09:06:37;;;;;;;3.50;1.33;;;;;;;17.90;31.20;94707.41;5052751;28;20036;-76
2024/04/04 09:09:03;;;;;;;4.75;1.40;;;;;;;18.20;30.52;94688.13;5052736;28;20025;-76
2024/04/04 09:11:29;;;;;;;3.97;1.45;;;;;;;18.35;31.40;94708.38;5053657;28;20541;-77
2024/04/04 09:14:10;;;;;;;5.20;1.55;;;;;;;17.99;30.52;94715.03;5036085;28;20475;-76
2024/04/04 09:16:39;;;;;;;11.25;3.70;;;;;;;17.54;30.74;94707.91;5035961;28;20499;-76
2024/04/04 09:19:18;;;;;;;6.55;2.00;;;;;;;17.27;31.71;94709.97;5052308;28;20045;-76
2024/04/04 09:21:47;;;;;;;12.85;4.82;;;;;;;17.33;31.73;94706.69;5035643;28;20124;-76
2024/04/04 09:24:13;;;;;;;4.55;2.15;;;;;;;17.39;31.91;94699.94;5035921;28;20025;-76
2024/04/04 09:26:39;;;;;;;4.70;1.65;;;;;;;17.27;32.20;94685.53;5019302;28;20426;-76
2024/04/04 09:29:06;;;;;;;9.60;1.27;;;;;;;17.35;32.20;94698.63;5019116;28;20025;-76
2024/04/04 09:31:36;;;;;;;3.90;1.20;;;;;;;17.58;32.44;94688.19;5019033;28;20087;-76
2024/04/04 09:34:01;;;;;;;3.00;1.33;;;;;;;17.93;32.41;94688.66;5035574;28;20028;-76
2024/04/04 09:36:32;;;;;;;4.85;1.55;;;;;;;18.15;31.42;94679.94;5035538;28;20048;-76
2024/04/04 09:38:59;;;;;;;3.42;1.20;;;;;;;17.96;30.41;94680.41;5019600;28;20032;-76
2024/04/04 09:41:25;;;;;;;4.25;1.20;;;;;;;17.91;31.45;94688.81;5035755;28;20106;-75
2024/04/04 09:43:54;;;;;;;3.28;1.27;;;;;;;18.20;31.26;94684.69;5051739;28;20029;-76
2024/04/04 09:46:20;;;;;;;2.63;1.15;;;;;;;18.66;30.36;94682.75;5036170;28;20043;-76
2024/04/04 09:48:45;;;;;;;3.40;1.10;;;;;;;19.09;29.80;94677.75;5018836;28;20025;-76
2024/04/04 09:51:11;;;;;;;3.60;1.10;;;;;;;19.03;29.59;94683.75;5051977;28;20483;-76
2024/04/04 09:53:38;;;;;;;3.28;1.30;;;;;;;18.75;28.79;94691.44;5035746;28;20021;-76
2024/04/04 09:56:05;;;;;;;7.40;1.48;;;;;;;18.45;29.73;94691.34;5051574;28;20033;-77
2024/04/04 09:58:32;;;;;;;2.72;1.23;;;;;;;18.00;30.68;94687.78;5034479;28;20306;-76
2024/04/04 10:01:21;;;;;;;3.53;1.17;;;;;;;18.36;30.01;94678.44;5052540;28;20044;-76
2024/04/04 10:03:55;;;;;;;6.22;1.30;;;;;;;18.50;30.56;94681.13;5051485;28;20032;-76
2024/04/04 10:06:36;;;;;;;2.65;0.95;;;;;;;18.85;30.08;94691.97;5035633;28;20037;-76
2024/04/04 10:09:14;;;;;;;;;;;;;;;18.61;30.13;94679.03;5051989;28;20036;-76
2024/04/04 10:11:40;;;;;;;3.85;1.17;;;;;;;18.71;30.03;94685.66;5051288;28;19916;-76
2024/04/04 10:14:11;;;;;;;2.85;1.00;;;;;;;18.61;29.61;94684.28;5051303;28;20017;-76
2024/04/04 10:16:38;;;;;;;4.65;1.20;;;;;;;18.60;29.62;94672.97;5052101;28;20029;-76
2024/04/04 10:19:10;;;;;;;3.20;1.20;;;;;;;18.78;29.64;94685.81;5067470;28;20051;-76
2024/04/04 10:21:35;;;;;;;3.22;1.10;;;;;;;18.68;28.67;94656.28;5052310;28;20056;-76
2024/04/04 10:24:02;;;;;;;6.20;1.20;;;;;;;18.69;29.20;94687.69;5051348;28;20483;-76
2024/04/04 10:26:28;;;;;;;2.30;1.05;;;;;;;18.68;29.00;94675.50;5034644;28;20037;-76
2024/04/04 10:28:53;;;;;;;2.72;1.10;;;;;;;18.70;29.08;94670.91;5051150;28;20032;-76
2024/04/04 10:31:19;;;;;;;2.67;1.17;;;;;;;18.52;29.46;94665.97;5034442;28;20041;-76
2024/04/04 10:33:44;;;;;;;7.18;1.15;;;;;;;18.64;29.60;94669.00;5067834;28;20423;-76
2024/04/04 10:36:10;;;;;;;3.83;1.00;;;;;;;18.79;29.24;94676.09;5034320;28;20090;-76
2024/04/04 10:38:35;;;;;;;3.30;1.20;;;;;;;19.15;28.91;94677.00;5067720;28;20407;-76
2024/04/04 10:41:01;;;;;;;2.40;1.10;;;;;;;19.36;28.49;94678.06;5034219;28;20036;-76
2024/04/04 10:43:26;;;;;;;3.33;1.20;;;;;;;19.45;27.82;94676.16;5050764;28;20036;-76
2024/04/04 10:45:52;;;;;;;2.97;1.10;;;;;;;19.34;27.35;94680.88;5034052;28;20033;-76
2024/04/04 10:48:17;;;;;;;3.05;1.10;;;;;;;19.41;27.44;94683.59;5034065;28;20028;-76
2024/04/04 10:50:43;;;;;;;3.13;1.08;;;;;;;19.01;27.75;94674.38;5033893;28;20511;-76
2024/04/04 10:53:09;;;;;;;5.60;1.20;;;;;;;19.29;28.21;94675.34;5034296;28;20420;-75
2024/04/04 10:55:34;;;;;;;3.35;1.10;;;;;;;19.33;28.01;94686.31;5050532;28;20029;-76
2024/04/04 10:58:00;;;;;;;3.97;1.25;;;;;;;19.30;28.45;94657.72;5033981;28;20040;-75
2024/04/04 11:00:29;;;;;;;3.10;1.30;;;;;;;19.07;27.45;94663.94;5050199;28;20040;-76
2024/04/04 11:02:55;;;;;;;3.75;1.30;;;;;;;18.73;28.29;94683.69;5033896;28;20041;-76
2024/04/04 11:05:20;;;;;;;4.00;1.20;;;;;;;18.56;28.97;94692.75;5017366;28;20099;-76
2024/04/04 11:07:46;;;;;;;2.42;1.00;;;;;;;18.89;29.12;94689.81;5067039;28;20033;-76
2024/04/04 11:10:12;;;;;;;4.90;1.30;;;;;;;18.88;28.18;94685.53;5033456;28;20060;-76
2024/04/04 11:12:38;;;;;;;3.13;1.00;;;;;;;18.91;28.85;94664.13;5050001;28;20408;-76
2024/04/04 11:15:07;;;;;;;3.35;1.10;;;;;;;19.18;28.20;94660.84;5050232;28;20071;-76
2024/04/04 11:17:34;;;;;;;4.10;1.10;;;;;;;19.25;28.21;94686.44;5033455;28;20058;-76
2024/04/04 11:20:14;;;;;;;7.05;1.20;;;;;;;19.26;28.30;94688.06;5033839;28;20111;-76
2024/04/04 11:22:39;;;;;;;6.97;1.60;;;;;;;19.13;28.59;94668.47;5050096;28;20029;-76
2024/04/04 11:25:05;;;;;;;2.38;1.10;;;;;;;18.83;28.59;94672.91;5033397;28;20033;-76
2024/04/04 11:27:36;;;;;;;2.63;1.00;;;;;;;18.75;28.16;94644.91;5033310;28;20024;-76
2024/04/04 11:30:02;;;;;;;3.05;1.13;;;;;;;19.20;28.75;94665.94;5033759;28;20037;-76
2024/04/04 11:32:27;;;;;;;3.00;1.30;;;;;;;19.40;28.48;94671.44;5033311;28;20040;-76